Tinley Park, IL (60477)

8:25 AM CST on January 27, 2015 (GMT -0600)
Chantilly | Change Station
CLOSE
Current Station
Personal Weather Station
Location: Tinley Park, IL
Elevation: 709 ft
Nearby Weather Stations
Active Advisory: Special Statement Active Notice: Local Storm Report

Elev 709 ft 41.58 °N, 87.82 °W | Updated 12 minutes ago

Overcast
Overcast
27.3 °F
Feels Like 27 °F
N
1.6
Wind Variable Wind from ESE

Today
High -- | Low -- °F
--% Chance of Precip.
Yesterday
High -- | Low -- °F
Precip. -- in
7:07 AM 5:00 PM
First Quarter, 54% visible
Pressure 30.10 in
Visibility 7.0 miles
Clouds Mostly Cloudy 1700 ft
Overcast 2200 ft
Windchill 27 °F
Dew Point 26 °F
Humidity 96%
Rainfall 0.00 in
Snow Depth Not available.
UV 0 out of 12
Pollen .10 out of 12
Air Quality Not available.
Flu Activity Not available.
METAR KIGQ 271415Z AUTO 00000KT 7SM BKN017 OVC022 M03/M05 A3010 RMK AO2 T10331048

More Conditions Fewer Conditions

Pressure 30.10 in
Visibility 7.0 miles
Clouds Mostly Cloudy 1700 ft
Overcast 2200 ft
Windchill 27 °F
Dew Point 26 °F
Humidity 96%
Rainfall 0.00 in
Snow Depth Not available.
UV 0 out of 12
Pollen .10 out of 12
Air Quality Not available.
Flu Activity Not available.
METAR KIGQ 271415Z AUTO 00000KT 7SM BKN017 OVC022 M03/M05 A3010 RMK AO2 T10331048

More Conditions Fewer Conditions

10-Day Weather Forecast

Almanac

Astronomy

Jan. 27, 2015 Rise Set
Actual Time
Civil Twilight
Nautical Twilight
Astronomical Twilight
Moon
Length of Visible Light
Length of Day
Tomorrow will be .
, % of the Moon is Illuminated

Today's Extremes

State Highs State Lows

Community

WunderPhotos

Upload Photos

1,790,648 photos uploaded!

WunderBlogs® & News

Nearby

Air Quality

  Air Quality AQ Index Pollutant
Not available.

Snow Depth

Station Depth Elevation

Earthquake Activity

City Distance Mag. Time & Date
Minimum magnitude displayed is 2.5.

Coastal Water Temperatures

Place Temperature

Nearby Weather Stations